Meteo Giornale » Osservazioni meteo Stati Uniti (USA) » Morgantown-Hart Fld
ore: 03:53 - Osservazioni Meteo Morgantown-Hart Fld
Lat. 39° 38' N Lon. 79° 55' W Alt. 380 metri s.l.m.
21 °C
Poco Nuvoloso
Temp. 24 Ore
21 °C
29 °C
Nord
0 Km/h
Dew point 21 °C
Umidità 100 %
Visibilità 13 Km
Il sole sorge alle ore 06:48
Il sole tramonta alle ore 19:51
| Data e Ora | Cielo e Fenomeni | T °C | DP °C | Um. % | Pres. hPa | Vis. km | Vento km/h | |
|---|---|---|---|---|---|---|---|---|
| Oggi h: 03:53 | Poco Nuvoloso | 21 | 21 | 100 | 1019 | 13 | N 0 | |
| Oggi h: 02:53 | Molto Nuvoloso | 21 | 21 | 100 | 1019 | 14 | N 0 | |
| Oggi h: 01:53 | Sereno | 22 | 21 | 94 | 1019 | 10 | N 0 | |
| Oggi h: 00:53 | Sereno | 22 | 21 | 94 | 1019 | 10 | N 0 | |
| Ieri h: 23:53 | Poco Nuvoloso | 22 | 21 | 94 | 1019 | 14 | N 0 | |
| Ieri h: 23:45 | Nuvoloso | 22 | 21 | 94 | 1019 | 11 | N 5.5 | |
| Ieri h: 23:38 | Foschia | 22 | 21 | 94 | 1019 | 3 | N 5.5 | |
| Ieri h: 23:33 | Foschia | 22 | 21 | 94 | 1019 | 5 | N 5.5 | |
| Ieri h: 23:11 | Nebbia | 22 | 22 | 100 | 1020 | 2 | N 5.5 | |
| Ieri h: 23:03 | Foschia | 22 | 22 | 100 | 1020 | 2 | N 0 | |
| Ieri h: 22:57 | Foschia | 22 | 22 | 100 | 1020 | 5 | N 5.5 | |
| Ieri h: 22:53 | Foschia | 22 | 22 | 100 | 1020 | 2 | N 0 | |
| Ieri h: 21:53 | Sereno | 23 | 22 | 94 | 1020 | 14 | N 0 | |
| Ieri h: 20:53 | Sereno | 23 | 22 | 94 | 1020 | 10 | N 0 | |
| Ieri h: 19:53 | Sereno | 23 | 22 | 94 | 1019 | 14 | N 0 | |
| Ieri h: 19:37 | Sereno | 23 | 22 | 94 | 1019 | 10 | S/SO 7.4 | |
| Ieri h: 18:53 | Temporale | 23 | 21 | 88 | 1019 | 14 | S 13 | |
| Ieri h: 18:28 | Temporale | 28 | 21 | 65 | 1019 | 10 | O/SO 18.5 | |
| Ieri h: 17:53 | Sereno | 29 | 21 | 62 | 1019 | 10 | S 9.3 | |
| Ieri h: 16:53 | Coperto | 29 | 22 | 66 | 1019 | 10 | SE 9.3 | |
| Ieri h: 15:53 | Coperto | 28 | 21 | 65 | 1020 | 10 | S/SO 7.4 | |
| Ieri h: 14:53 | Coperto | 29 | 21 | 62 | 1021 | 10 | O 7.4 | |
| Ieri h: 13:53 | Coperto | 27 | 21 | 69 | 1021 | 10 | S/SO 11.1 | |
| Ieri h: 12:53 | Molto Nuvoloso | 25 | 21 | 78 | 1021 | 10 | S/SO 9.3 | |
| Ieri h: 11:53 | Molto Nuvoloso | 24 | 21 | 83 | 1021 | 10 | S/SO 13 | |
| Ieri h: 10:53 | Molto Nuvoloso | 23 | 21 | 88 | 1021 | 10 | SO 7.4 | |
| Ieri h: 09:53 | Molto Nuvoloso | 22 | 20 | 88 | 1022 | 10 | N 0 | |
| Ieri h: 08:53 | Coperto | 22 | 19 | 83 | 1021 | 10 | N 5.5 | |
| Ieri h: 07:53 | Sereno | 22 | 19 | 83 | 1021 | 10 | N 0 | |
| Ieri h: 06:53 | Poco Nuvoloso | 21 | 19 | 88 | 1020 | 10 | N 0 | |
| Ieri h: 05:53 | Nuvoloso | 21 | 19 | 88 | 1020 | 10 | N 0 | |
| Ieri h: 04:53 | Nuvoloso | 21 | 19 | 88 | 1020 | 13 | S 7.4 | |



